createdAt,value
2024-01-20T00:00:15.889Z,15.50
2024-01-20T00:02:44.676Z,16.83
2024-01-20T00:05:13.420Z,16.00
2024-01-20T00:07:41.566Z,14.50
2024-01-20T00:10:15.016Z,19.77
2024-01-20T00:12:43.872Z,19.83
2024-01-20T00:15:12.871Z,13.80
2024-01-20T00:17:41.354Z,16.67
2024-01-20T00:20:11.066Z,15.77
2024-01-20T00:22:38.866Z,18.13
2024-01-20T00:25:06.383Z,17.25
2024-01-20T00:27:34.674Z,17.48
2024-01-20T00:30:02.235Z,16.65
2024-01-20T00:32:29.893Z,21.60
2024-01-20T00:35:06.045Z,14.35
2024-01-20T00:37:36.602Z,16.98
2024-01-20T00:40:05.832Z,15.80
2024-01-20T00:42:33.224Z,15.77
2024-01-20T00:45:00.337Z,19.40
2024-01-20T00:47:27.137Z,24.50
2024-01-20T00:49:54.052Z,18.75
2024-01-20T00:52:20.952Z,17.45
2024-01-20T00:54:47.960Z,20.33
2024-01-20T00:57:14.826Z,19.23
2024-01-20T00:59:41.686Z,19.70
2024-01-20T01:02:08.874Z,19.25
2024-01-20T01:04:35.793Z,19.52
2024-01-20T01:07:02.698Z,21.05
2024-01-20T01:09:29.668Z,16.83
2024-01-20T01:11:56.550Z,18.65
2024-01-20T01:14:23.563Z,18.00
2024-01-20T01:16:50.570Z,18.98
2024-01-20T01:19:17.488Z,21.10
2024-01-20T01:21:44.426Z,16.07
2024-01-20T01:24:12.318Z,21.63
2024-01-20T01:26:39.386Z,25.85
2024-01-20T01:29:07.070Z,23.10
2024-01-20T01:31:34.405Z,22.83
2024-01-20T01:34:01.389Z,23.13
2024-01-20T01:36:28.282Z,20.05
2024-01-20T01:38:55.096Z,20.40
2024-01-20T01:41:22.092Z,21.35
2024-01-20T01:43:49.031Z,24.48
2024-01-20T01:46:15.993Z,23.07
2024-01-20T01:48:42.929Z,25.85
2024-01-20T01:51:10.177Z,23.48
2024-01-20T01:53:37.532Z,21.55
2024-01-20T01:56:06.417Z,24.92
2024-01-20T01:58:34.059Z,25.67
2024-01-20T02:01:01.674Z,23.98
2024-01-20T02:03:28.906Z,27.20
2024-01-20T02:05:56.121Z,22.48
2024-01-20T02:08:24.788Z,20.15
2024-01-20T02:10:51.946Z,27.97
2024-01-20T02:13:19.702Z,28.27
2024-01-20T02:15:47.160Z,21.83
2024-01-20T02:18:14.153Z,23.98
2024-01-20T02:20:41.224Z,18.75
2024-01-20T02:23:08.124Z,22.83
2024-01-20T02:25:34.932Z,26.52
2024-01-20T02:28:01.760Z,17.88
2024-01-20T02:30:28.717Z,22.33
2024-01-20T02:32:55.805Z,18.35
2024-01-20T02:35:22.862Z,22.67
2024-01-20T02:37:49.827Z,21.77
2024-01-20T02:40:17.402Z,21.05
2024-01-20T02:42:44.323Z,22.17
2024-01-20T02:45:11.343Z,22.75
2024-01-20T02:47:38.840Z,21.27
2024-01-20T02:50:06.740Z,23.70
2024-01-20T02:52:34.340Z,20.52
2024-01-20T02:55:01.217Z,20.52
2024-01-20T02:57:28.173Z,24.63
2024-01-20T02:59:55.084Z,22.30
2024-01-20T03:02:22.031Z,19.02
2024-01-20T03:04:48.890Z,21.35
2024-01-20T03:07:15.978Z,22.08
2024-01-20T03:09:42.969Z,19.42
2024-01-20T03:12:09.963Z,18.73
2024-01-20T03:14:37.066Z,25.83
2024-01-20T03:17:04.072Z,18.10
2024-01-20T03:19:30.988Z,18.67
2024-01-20T03:21:57.872Z,18.20
2024-01-20T03:24:25.810Z,19.07
2024-01-20T03:26:56.526Z,22.40
2024-01-20T03:29:24.932Z,23.67
2024-01-20T03:31:52.896Z,25.75
2024-01-20T03:34:20.246Z,16.70
2024-01-20T03:36:48.297Z,20.63
2024-01-20T03:39:15.100Z,14.25
2024-01-20T03:41:42.009Z,16.27
2024-01-20T03:44:09.433Z,19.30
2024-01-20T03:46:36.268Z,16.98
2024-01-20T03:49:03.928Z,23.67
2024-01-20T03:51:31.254Z,19.77
2024-01-20T03:53:58.164Z,20.05
2024-01-20T03:56:24.967Z,18.58
2024-01-20T03:58:51.784Z,19.50
2024-01-20T04:01:18.736Z,17.17
2024-01-20T04:03:45.636Z,19.13
2024-01-20T04:06:12.669Z,16.45
2024-01-20T04:08:39.496Z,16.25
2024-01-20T04:11:06.615Z,17.15
2024-01-20T04:13:33.481Z,18.03
2024-01-20T04:16:00.344Z,22.60
2024-01-20T04:18:27.387Z,16.33
2024-01-20T04:20:54.337Z,20.05
2024-01-20T04:23:21.244Z,14.27
2024-01-20T04:25:48.623Z,22.90
2024-01-20T04:28:15.448Z,17.25
2024-01-20T04:30:42.457Z,18.67
2024-01-20T04:33:09.408Z,21.50
2024-01-20T04:35:36.324Z,20.33
2024-01-20T04:38:03.367Z,19.93
2024-01-20T04:40:30.454Z,22.40
2024-01-20T04:42:57.349Z,14.85
2024-01-20T04:45:24.336Z,17.95
2024-01-20T04:47:51.316Z,16.65
2024-01-20T04:50:18.212Z,18.97
2024-01-20T04:52:45.048Z,19.30
2024-01-20T04:55:11.986Z,16.55
2024-01-20T04:57:38.914Z,17.83
2024-01-20T05:00:07.315Z,20.70
2024-01-20T05:02:36.934Z,21.63
2024-01-20T05:05:04.821Z,17.58
2024-01-20T05:07:31.838Z,20.17
2024-01-20T05:09:58.891Z,19.13
2024-01-20T05:12:26.758Z,20.48
2024-01-20T05:14:54.402Z,16.90
2024-01-20T05:17:21.537Z,17.33
2024-01-20T05:19:48.821Z,19.98
2024-01-20T05:22:17.834Z,17.70
2024-01-20T05:24:44.869Z,15.45
2024-01-20T05:27:12.264Z,15.97
2024-01-20T05:29:39.217Z,18.98
2024-01-20T05:32:06.249Z,15.73
2024-01-20T05:34:33.434Z,22.67
2024-01-20T05:37:00.525Z,17.10
2024-01-20T05:39:27.478Z,22.70
2024-01-20T05:41:54.392Z,17.45
2024-01-20T05:44:21.548Z,18.60
2024-01-20T05:46:48.423Z,20.63
2024-01-20T05:49:15.644Z,18.65
2024-01-20T05:51:42.589Z,24.27
2024-01-20T05:54:09.682Z,17.23
2024-01-20T05:56:36.812Z,19.08
2024-01-20T05:59:04.062Z,14.95
2024-01-20T06:01:31.237Z,18.50
2024-01-20T06:03:58.390Z,19.20
2024-01-20T06:06:25.742Z,19.13
2024-01-20T06:08:52.764Z,15.38
2024-01-20T06:11:19.623Z,16.17
2024-01-20T06:13:46.716Z,16.73
2024-01-20T06:16:14.078Z,18.77
2024-01-20T06:18:41.027Z,21.25
2024-01-20T06:21:09.478Z,21.40
2024-01-20T06:23:37.029Z,20.02
2024-01-20T06:26:04.422Z,18.13
2024-01-20T06:28:31.328Z,15.63
2024-01-20T06:30:58.188Z,26.67
2024-01-20T06:33:25.350Z,15.32
2024-01-20T06:35:52.572Z,18.60
2024-01-20T06:38:19.673Z,15.52
2024-01-20T06:40:46.505Z,16.27
2024-01-20T06:43:13.334Z,19.15
2024-01-20T06:45:41.051Z,19.85
2024-01-20T06:48:09.036Z,14.07
2024-01-20T06:50:41.071Z,18.88
2024-01-20T06:53:07.896Z,20.03
2024-01-20T06:55:34.915Z,14.82
2024-01-20T06:58:02.039Z,21.65
2024-01-20T07:00:28.896Z,16.63
2024-01-20T07:02:56.113Z,13.05
2024-01-20T07:05:23.011Z,17.50
2024-01-20T07:07:49.913Z,16.38
2024-01-20T07:10:16.993Z,15.73
2024-01-20T07:12:43.951Z,19.45
2024-01-20T07:15:11.470Z,16.23
2024-01-20T07:17:38.636Z,16.33
2024-01-20T07:20:05.978Z,27.85
2024-01-20T07:22:33.127Z,12.77
2024-01-20T07:25:00.275Z,14.88
2024-01-20T07:27:27.359Z,20.23
2024-01-20T07:29:54.235Z,14.90
2024-01-20T07:32:21.131Z,17.05
2024-01-20T07:34:48.115Z,19.55
2024-01-20T07:37:16.455Z,15.77
2024-01-20T07:39:44.026Z,13.93
2024-01-20T07:42:11.870Z,16.70
2024-01-20T07:44:38.919Z,20.85
2024-01-20T07:47:05.933Z,14.93
2024-01-20T07:49:33.294Z,12.65
2024-01-20T07:52:00.169Z,15.02
2024-01-20T07:54:27.208Z,18.07
2024-01-20T07:56:54.046Z,14.90
2024-01-20T07:59:21.069Z,13.20
2024-01-20T08:01:48.213Z,16.83
2024-01-20T08:04:16.116Z,16.25
2024-01-20T08:06:43.318Z,19.40
2024-01-20T08:09:11.674Z,18.73
2024-01-20T08:11:38.709Z,15.73
2024-01-20T08:14:05.741Z,17.83
2024-01-20T08:16:32.752Z,18.50
2024-01-20T08:19:00.068Z,16.40
2024-01-20T08:21:27.111Z,19.00
2024-01-20T08:23:54.333Z,19.50
2024-01-20T08:26:21.293Z,15.52
2024-01-20T08:28:48.335Z,13.98
2024-01-20T08:31:15.448Z,18.83
2024-01-20T08:33:43.894Z,15.57
2024-01-20T08:36:11.289Z,18.73
2024-01-20T08:38:38.338Z,15.50
2024-01-20T08:41:12.463Z,17.50
2024-01-20T08:43:46.049Z,18.80
2024-01-20T08:46:13.775Z,20.45
2024-01-20T08:48:41.867Z,17.25
2024-01-20T08:51:09.012Z,16.27
2024-01-20T08:53:35.937Z,17.38
2024-01-20T08:56:05.090Z,14.17
2024-01-20T08:58:32.153Z,16.10
2024-01-20T09:00:59.327Z,17.13
2024-01-20T09:03:26.589Z,17.90
2024-01-20T09:05:53.727Z,15.20
2024-01-20T09:08:20.613Z,17.30
2024-01-20T09:10:47.514Z,16.40
2024-01-20T09:13:14.387Z,14.07
2024-01-20T09:15:41.392Z,20.48
2024-01-20T09:18:09.218Z,15.35
2024-01-20T09:20:36.532Z,12.70
2024-01-20T09:23:04.614Z,15.48
2024-01-20T09:25:31.474Z,16.77
2024-01-20T09:27:58.402Z,15.10
2024-01-20T09:30:25.610Z,16.02
2024-01-20T09:32:52.809Z,18.80
2024-01-20T09:35:19.771Z,15.45
2024-01-20T09:37:46.670Z,19.35
2024-01-20T09:40:13.899Z,17.73
2024-01-20T09:42:41.519Z,14.98
2024-01-20T09:45:08.870Z,17.57
2024-01-20T09:47:36.659Z,16.60
2024-01-20T09:50:05.684Z,18.02
2024-01-20T09:52:36.285Z,17.30
2024-01-20T09:55:20.681Z,14.48
2024-01-20T09:57:50.293Z,17.17
2024-01-20T10:00:17.952Z,20.67
2024-01-20T10:02:48.176Z,19.42
2024-01-20T10:05:16.678Z,19.88
2024-01-20T10:07:44.403Z,18.98
2024-01-20T10:10:21.852Z,20.90
2024-01-20T10:12:53.005Z,14.45
2024-01-20T10:15:28.858Z,19.70
2024-01-20T10:17:58.702Z,16.45
2024-01-20T10:20:27.166Z,17.80
2024-01-20T10:22:54.310Z,16.63
2024-01-20T10:25:21.636Z,14.25
2024-01-20T10:27:50.855Z,17.75
2024-01-20T10:30:22.425Z,15.98
2024-01-20T10:33:03.317Z,17.45
2024-01-20T10:35:35.868Z,17.93
2024-01-20T10:38:08.811Z,14.55
2024-01-20T10:40:40.770Z,20.30
2024-01-20T10:43:17.153Z,16.55
2024-01-20T10:46:19.548Z,14.68
2024-01-20T10:48:52.102Z,19.63
2024-01-20T10:51:28.510Z,17.20
2024-01-20T10:53:58.827Z,15.75
2024-01-20T10:56:27.384Z,16.95
2024-01-20T10:59:10.634Z,18.02
2024-01-20T11:01:42.677Z,14.20
2024-01-20T11:04:09.882Z,15.90
2024-01-20T11:06:37.565Z,17.98
2024-01-20T11:09:05.441Z,17.73
2024-01-20T11:11:36.804Z,18.63
2024-01-20T11:14:04.140Z,15.10
2024-01-20T11:16:33.564Z,15.23
2024-01-20T11:19:13.514Z,13.30
2024-01-20T11:21:40.942Z,15.38
2024-01-20T11:24:08.495Z,16.38
2024-01-20T11:26:37.672Z,16.53
2024-01-20T11:29:09.793Z,17.15
2024-01-20T11:31:37.053Z,16.45
2024-01-20T11:34:07.526Z,14.27
2024-01-20T11:36:35.764Z,15.45
2024-01-20T11:39:04.854Z,15.20
2024-01-20T11:41:31.875Z,16.33
2024-01-20T11:43:58.758Z,18.35
2024-01-20T11:46:26.055Z,17.15
2024-01-20T11:48:53.896Z,14.95
2024-01-20T11:51:22.234Z,15.63
2024-01-20T11:53:49.941Z,12.93
2024-01-20T11:56:17.806Z,15.02
2024-01-20T11:58:45.060Z,15.38
2024-01-20T12:01:15.428Z,14.32
2024-01-20T12:03:42.936Z,14.60
2024-01-20T12:06:13.119Z,15.00
2024-01-20T12:08:43.536Z,14.85
2024-01-20T12:11:24.271Z,13.65
2024-01-20T12:13:51.367Z,16.48
2024-01-20T12:16:18.864Z,13.70
2024-01-20T12:18:46.199Z,15.98
2024-01-20T12:21:13.567Z,16.65
2024-01-20T12:23:41.448Z,12.57
2024-01-20T12:26:15.642Z,15.05
2024-01-20T12:28:48.083Z,13.43
2024-01-20T12:31:19.251Z,13.35
2024-01-20T12:33:48.636Z,13.25
2024-01-20T12:36:15.564Z,14.70
2024-01-20T12:38:42.451Z,15.18
2024-01-20T12:41:09.623Z,15.57
2024-01-20T12:43:36.697Z,13.23
2024-01-20T12:46:03.629Z,13.63
2024-01-20T12:48:30.686Z,11.77
2024-01-20T12:50:58.509Z,13.18
2024-01-20T12:53:25.526Z,13.40
2024-01-20T12:55:52.630Z,13.77
2024-01-20T12:58:19.523Z,12.00
2024-01-20T13:00:46.647Z,15.40
2024-01-20T13:03:13.648Z,15.07
2024-01-20T13:05:40.866Z,14.43
2024-01-20T13:08:08.149Z,12.50
2024-01-20T13:10:35.112Z,12.52
2024-01-20T13:13:02.496Z,11.88
2024-01-20T13:15:29.576Z,15.98
2024-01-20T13:17:56.654Z,12.00
2024-01-20T13:20:23.679Z,14.10
2024-01-20T13:22:50.770Z,10.38
2024-01-20T13:25:17.760Z,12.77
2024-01-20T13:27:44.804Z,12.07
2024-01-20T13:30:13.124Z,12.47
2024-01-20T13:32:40.905Z,14.82
2024-01-20T13:35:08.749Z,14.40
2024-01-20T13:37:35.726Z,12.35
2024-01-20T13:40:05.793Z,13.70
2024-01-20T13:42:33.007Z,9.70
2024-01-20T13:45:00.503Z,15.88
2024-01-20T13:47:27.658Z,15.25
2024-01-20T13:49:54.668Z,15.63
2024-01-20T13:52:22.042Z,11.02
2024-01-20T13:54:49.417Z,13.10
2024-01-20T13:57:16.531Z,11.07
2024-01-20T13:59:43.668Z,9.93
2024-01-20T14:02:10.543Z,11.63
2024-01-20T14:04:37.706Z,11.98
2024-01-20T14:07:06.338Z,11.27
2024-01-20T14:09:34.032Z,9.68
2024-01-20T14:12:01.219Z,11.35
2024-01-20T14:14:28.861Z,12.48
2024-01-20T14:16:57.558Z,9.57
2024-01-20T14:19:26.254Z,13.43
2024-01-20T14:21:53.487Z,11.35
2024-01-20T14:24:20.815Z,14.38
2024-01-20T14:26:48.405Z,8.38
2024-01-20T14:29:16.414Z,12.65
2024-01-20T14:31:51.108Z,12.03
2024-01-20T14:34:19.873Z,8.52
2024-01-20T14:36:48.786Z,10.18
2024-01-20T14:39:19.680Z,9.23
2024-01-20T14:41:47.232Z,9.48
2024-01-20T14:44:14.347Z,7.80
2024-01-20T14:46:41.686Z,8.35
2024-01-20T14:49:09.220Z,12.95
2024-01-20T14:51:36.382Z,10.77
2024-01-20T14:54:05.784Z,9.88
2024-01-20T14:56:37.237Z,9.47
2024-01-20T14:59:04.813Z,8.95
2024-01-20T15:01:32.750Z,9.98
2024-01-20T15:04:00.388Z,8.95
2024-01-20T15:06:28.593Z,7.55
2024-01-20T15:08:55.679Z,8.43
2024-01-20T15:11:23.222Z,10.93
2024-01-20T15:13:50.460Z,10.27
2024-01-20T15:16:18.221Z,9.02
2024-01-20T15:18:45.507Z,9.80
2024-01-20T15:21:12.649Z,9.60
2024-01-20T15:23:39.592Z,10.10
2024-01-20T15:26:06.564Z,14.18
2024-01-20T15:28:33.563Z,10.68
2024-01-20T15:31:00.454Z,8.43
2024-01-20T15:33:27.382Z,8.57
2024-01-20T15:35:54.571Z,10.18
2024-01-20T15:38:21.543Z,10.93
2024-01-20T15:40:48.468Z,9.18
2024-01-20T15:43:15.460Z,8.82
2024-01-20T15:45:42.546Z,8.67
2024-01-20T15:48:10.340Z,11.57
2024-01-20T15:50:37.480Z,12.90
2024-01-20T15:53:04.720Z,11.93
2024-01-20T15:55:31.718Z,10.07
2024-01-20T15:57:58.634Z,8.93
2024-01-20T16:00:26.058Z,9.15
2024-01-20T16:02:53.662Z,7.60
2024-01-20T16:05:20.470Z,9.55
2024-01-20T16:07:47.584Z,9.52
2024-01-20T16:10:14.623Z,10.77
2024-01-20T16:12:41.698Z,7.32
2024-01-20T16:15:12.206Z,8.50
2024-01-20T16:17:41.547Z,12.23
2024-01-20T16:20:09.933Z,7.95
2024-01-20T16:22:36.983Z,7.70
2024-01-20T16:25:04.271Z,8.77
2024-01-20T16:27:31.295Z,8.80
2024-01-20T16:29:58.270Z,8.95
2024-01-20T16:32:25.491Z,9.55
2024-01-20T16:34:52.497Z,9.07
2024-01-20T16:37:19.474Z,9.77
2024-01-20T16:39:46.405Z,9.10
2024-01-20T16:42:13.332Z,11.25
2024-01-20T16:44:40.224Z,10.35
2024-01-20T16:47:07.043Z,12.30
2024-01-20T16:49:34.261Z,9.48
2024-01-20T16:52:03.612Z,12.27
2024-01-20T16:54:30.885Z,11.20
2024-01-20T16:56:57.777Z,13.00
2024-01-20T16:59:24.701Z,15.43
2024-01-20T17:01:51.985Z,11.52
2024-01-20T17:04:19.111Z,10.27
2024-01-20T17:06:46.312Z,13.75
2024-01-20T17:09:14.704Z,12.93
2024-01-20T17:11:45.728Z,10.50
2024-01-20T17:14:17.429Z,11.80
2024-01-20T17:16:44.643Z,11.00
2024-01-20T17:19:12.325Z,12.98
2024-01-20T17:21:39.409Z,12.68
2024-01-20T17:24:06.436Z,10.37
2024-01-20T17:26:33.516Z,11.00
2024-01-20T17:29:01.361Z,11.25
2024-01-20T17:31:34.199Z,12.48
2024-01-20T17:34:02.172Z,10.45
2024-01-20T17:36:29.540Z,11.97
2024-01-20T17:38:59.468Z,12.48
2024-01-20T17:41:26.258Z,12.32
2024-01-20T17:43:53.157Z,9.52
2024-01-20T17:46:20.012Z,14.10
2024-01-20T17:48:47.025Z,11.70
2024-01-20T17:51:14.025Z,9.65
2024-01-20T17:53:40.897Z,8.50
2024-01-20T17:56:07.801Z,8.82
2024-01-20T17:58:35.462Z,13.57
2024-01-20T18:01:02.856Z,12.63
2024-01-20T18:03:30.200Z,9.68
2024-01-20T18:05:57.409Z,10.35
2024-01-20T18:08:25.578Z,11.50
2024-01-20T18:10:52.448Z,10.77
2024-01-20T18:13:19.475Z,11.90
2024-01-20T18:15:46.647Z,10.07
2024-01-20T18:18:14.027Z,13.70
2024-01-20T18:20:41.057Z,8.70
2024-01-20T18:23:08.001Z,9.18
2024-01-20T18:25:35.339Z,11.87
2024-01-20T18:28:02.296Z,9.65
2024-01-20T18:30:29.193Z,10.88
2024-01-20T18:32:56.227Z,13.45
2024-01-20T18:35:23.412Z,11.80
2024-01-20T18:37:50.664Z,14.03
2024-01-20T18:40:17.515Z,10.90
2024-01-20T18:42:47.170Z,10.35
2024-01-20T18:45:14.475Z,12.95
2024-01-20T18:47:45.974Z,10.40
2024-01-20T18:50:14.613Z,11.63
2024-01-20T18:52:41.796Z,11.65
2024-01-20T18:55:09.967Z,12.98
2024-01-20T18:57:37.248Z,9.23
2024-01-20T19:00:05.760Z,12.50
2024-01-20T19:02:32.991Z,10.20
2024-01-20T19:05:00.088Z,9.98
2024-01-20T19:07:27.146Z,11.27
2024-01-20T19:09:54.061Z,12.90
2024-01-20T19:12:21.491Z,10.23
2024-01-20T19:14:49.240Z,7.80
2024-01-20T19:17:16.332Z,11.18
2024-01-20T19:19:46.505Z,15.55
2024-01-20T19:22:13.649Z,9.45
2024-01-20T19:24:40.797Z,11.40
2024-01-20T19:27:11.178Z,11.40
2024-01-20T19:29:38.282Z,8.98
2024-01-20T19:32:05.831Z,11.30
2024-01-20T19:34:33.254Z,11.02
2024-01-20T19:37:00.420Z,9.07
2024-01-20T19:39:27.379Z,9.20
2024-01-20T19:41:54.333Z,12.68
2024-01-20T19:44:22.621Z,14.38
2024-01-20T19:46:49.579Z,9.65
2024-01-20T19:49:19.653Z,11.70
2024-01-20T19:51:46.650Z,7.73
2024-01-20T19:54:13.696Z,10.43
2024-01-20T19:56:47.165Z,9.93
2024-01-20T19:59:16.929Z,9.40
2024-01-20T20:01:47.670Z,11.38
2024-01-20T20:04:18.982Z,8.47
2024-01-20T20:06:48.013Z,10.35
2024-01-20T20:09:18.970Z,10.30
2024-01-20T20:11:46.004Z,11.93
2024-01-20T20:14:13.738Z,10.90
2024-01-20T20:16:41.464Z,10.17
2024-01-20T20:19:09.168Z,12.13
2024-01-20T20:21:36.182Z,12.57
2024-01-20T20:24:03.226Z,12.73
2024-01-20T20:26:31.178Z,10.93
2024-01-20T20:28:57.956Z,11.00
2024-01-20T20:31:27.645Z,11.90
2024-01-20T20:33:55.338Z,8.77
2024-01-20T20:36:22.593Z,8.65
2024-01-20T20:38:49.669Z,16.85
2024-01-20T20:41:16.588Z,10.17
2024-01-20T20:43:43.639Z,7.80
2024-01-20T20:46:10.925Z,10.85
2024-01-20T20:48:37.840Z,10.10
2024-01-20T20:51:05.103Z,9.57
2024-01-20T20:53:32.100Z,8.80
2024-01-20T20:55:59.653Z,8.20
2024-01-20T20:58:29.749Z,16.95
2024-01-20T21:00:56.854Z,11.93
2024-01-20T21:03:23.983Z,9.40
2024-01-20T21:05:51.127Z,11.30
2024-01-20T21:08:18.103Z,10.95
2024-01-20T21:10:45.137Z,13.10
2024-01-20T21:13:12.079Z,9.07
2024-01-20T21:15:39.391Z,11.90
2024-01-20T21:18:06.463Z,9.13
2024-01-20T21:20:33.397Z,10.85
2024-01-20T21:23:00.189Z,10.27
2024-01-20T21:25:27.082Z,10.63
2024-01-20T21:27:53.918Z,8.27
2024-01-20T21:30:22.253Z,12.97
2024-01-20T21:32:49.303Z,12.55
2024-01-20T21:35:16.400Z,9.13
2024-01-20T21:37:45.534Z,11.10
2024-01-20T21:40:13.791Z,9.98
2024-01-20T21:42:40.770Z,9.63
2024-01-20T21:45:08.447Z,8.02
2024-01-20T21:47:35.358Z,10.10
2024-01-20T21:50:02.349Z,11.38
2024-01-20T21:52:29.154Z,11.32
2024-01-20T21:54:57.100Z,8.80
2024-01-20T21:57:24.186Z,9.50
2024-01-20T21:59:51.162Z,9.50
2024-01-20T22:02:18.056Z,10.60
2024-01-20T22:04:44.968Z,7.75
2024-01-20T22:07:11.848Z,9.80
2024-01-20T22:09:38.723Z,8.48
2024-01-20T22:12:05.866Z,11.45
2024-01-20T22:14:32.802Z,6.85
2024-01-20T22:16:59.648Z,7.28
2024-01-20T22:19:26.820Z,9.00
2024-01-20T22:21:53.684Z,11.23
2024-01-20T22:24:20.817Z,12.10
2024-01-20T22:26:47.695Z,9.10
2024-01-20T22:29:23.404Z,12.27
2024-01-20T22:31:55.697Z,9.87
2024-01-20T22:34:23.438Z,10.38
2024-01-20T22:36:50.740Z,7.20
2024-01-20T22:39:18.309Z,12.18
2024-01-20T22:41:45.200Z,10.35
2024-01-20T22:44:12.561Z,10.13
2024-01-20T22:46:39.475Z,10.18
2024-01-20T22:49:06.436Z,9.88
2024-01-20T22:51:33.603Z,10.15
2024-01-20T22:54:00.938Z,8.05
2024-01-20T22:56:27.704Z,6.37
2024-01-20T22:58:54.545Z,7.03
2024-01-20T23:01:21.538Z,9.85
2024-01-20T23:03:48.601Z,8.70
2024-01-20T23:06:15.691Z,12.73
2024-01-20T23:08:43.172Z,11.10
2024-01-20T23:11:09.964Z,9.85
2024-01-20T23:13:36.992Z,9.43
2024-01-20T23:16:04.011Z,10.48
2024-01-20T23:18:30.917Z,11.38
2024-01-20T23:20:57.906Z,8.23
2024-01-20T23:23:24.962Z,11.88
2024-01-20T23:25:51.806Z,7.30
2024-01-20T23:28:18.554Z,6.60
2024-01-20T23:30:45.633Z,6.72
2024-01-20T23:33:13.019Z,10.23
2024-01-20T23:35:40.054Z,8.50
2024-01-20T23:38:06.939Z,7.68
2024-01-20T23:40:33.755Z,9.60
2024-01-20T23:43:00.666Z,9.00
2024-01-20T23:45:28.631Z,8.67
2024-01-20T23:47:56.919Z,7.80
2024-01-20T23:50:23.882Z,6.13
2024-01-20T23:52:50.843Z,7.43
2024-01-20T23:55:17.634Z,6.38
2024-01-20T23:57:45.251Z,5.77
